sensor_id;sensor_type;location;lat;lon;timestamp;P1;durP1;ratioP1;P2;durP2;ratioP2
16845;SDS011;8539;53.188;8.696;2023-06-05T00:00:02;6.90;;;4.05;;
16845;SDS011;8539;53.188;8.696;2023-06-05T00:02:35;10.98;;;4.45;;
16845;SDS011;8539;53.188;8.696;2023-06-05T00:05:03;6.53;;;5.80;;
16845;SDS011;8539;53.188;8.696;2023-06-05T00:07:34;7.22;;;4.30;;
16845;SDS011;8539;53.188;8.696;2023-06-05T00:10:04;8.25;;;4.10;;
16845;SDS011;8539;53.188;8.696;2023-06-05T00:12:34;6.78;;;4.50;;
16845;SDS011;8539;53.188;8.696;2023-06-05T00:15:01;8.02;;;4.75;;
16845;SDS011;8539;53.188;8.696;2023-06-05T00:17:29;9.35;;;4.93;;
16845;SDS011;8539;53.188;8.696;2023-06-05T00:20:00;8.45;;;5.20;;
16845;SDS011;8539;53.188;8.696;2023-06-05T00:22:27;12.15;;;5.35;;
16845;SDS011;8539;53.188;8.696;2023-06-05T00:24:54;8.75;;;5.00;;
16845;SDS011;8539;53.188;8.696;2023-06-05T00:27:21;12.32;;;5.45;;
16845;SDS011;8539;53.188;8.696;2023-06-05T00:29:48;7.00;;;4.97;;
16845;SDS011;8539;53.188;8.696;2023-06-05T00:32:15;9.63;;;5.38;;
16845;SDS011;8539;53.188;8.696;2023-06-05T00:34:42;14.95;;;4.65;;
16845;SDS011;8539;53.188;8.696;2023-06-05T00:37:10;12.45;;;5.43;;
16845;SDS011;8539;53.188;8.696;2023-06-05T00:39:39;10.07;;;5.13;;
16845;SDS011;8539;53.188;8.696;2023-06-05T00:42:06;8.23;;;5.15;;
16845;SDS011;8539;53.188;8.696;2023-06-05T00:44:34;8.20;;;5.13;;
16845;SDS011;8539;53.188;8.696;2023-06-05T00:47:00;9.48;;;5.20;;
16845;SDS011;8539;53.188;8.696;2023-06-05T00:49:28;10.20;;;6.00;;
16845;SDS011;8539;53.188;8.696;2023-06-05T00:51:56;6.43;;;4.95;;
16845;SDS011;8539;53.188;8.696;2023-06-05T00:54:24;8.48;;;4.90;;
16845;SDS011;8539;53.188;8.696;2023-06-05T00:56:50;7.63;;;5.22;;
16845;SDS011;8539;53.188;8.696;2023-06-05T00:59:18;9.75;;;5.03;;
16845;SDS011;8539;53.188;8.696;2023-06-05T01:01:44;13.27;;;6.22;;
16845;SDS011;8539;53.188;8.696;2023-06-05T01:04:11;8.10;;;5.22;;
16845;SDS011;8539;53.188;8.696;2023-06-05T01:06:37;13.40;;;6.00;;
16845;SDS011;8539;53.188;8.696;2023-06-05T01:09:09;8.23;;;5.00;;
16845;SDS011;8539;53.188;8.696;2023-06-05T01:14:31;15.68;;;5.40;;
16845;SDS011;8539;53.188;8.696;2023-06-05T01:17:01;12.07;;;5.60;;
16845;SDS011;8539;53.188;8.696;2023-06-05T01:19:29;9.00;;;5.97;;
16845;SDS011;8539;53.188;8.696;2023-06-05T01:21:59;8.73;;;5.95;;
16845;SDS011;8539;53.188;8.696;2023-06-05T01:24:26;8.75;;;5.18;;
16845;SDS011;8539;53.188;8.696;2023-06-05T01:27:01;9.73;;;5.97;;
16845;SDS011;8539;53.188;8.696;2023-06-05T01:32:25;11.75;;;6.20;;
16845;SDS011;8539;53.188;8.696;2023-06-05T01:35:11;10.82;;;6.07;;
16845;SDS011;8539;53.188;8.696;2023-06-05T01:37:44;8.40;;;5.22;;
16845;SDS011;8539;53.188;8.696;2023-06-05T01:40:14;10.23;;;5.72;;
16845;SDS011;8539;53.188;8.696;2023-06-05T01:42:47;14.93;;;7.30;;
16845;SDS011;8539;53.188;8.696;2023-06-05T01:45:13;12.98;;;5.47;;
16845;SDS011;8539;53.188;8.696;2023-06-05T01:47:41;11.52;;;6.10;;
16845;SDS011;8539;53.188;8.696;2023-06-05T01:50:08;11.68;;;5.82;;
16845;SDS011;8539;53.188;8.696;2023-06-05T01:52:38;9.77;;;5.40;;
16845;SDS011;8539;53.188;8.696;2023-06-05T01:55:08;10.73;;;6.32;;
16845;SDS011;8539;53.188;8.696;2023-06-05T01:57:40;15.75;;;6.20;;
16845;SDS011;8539;53.188;8.696;2023-06-05T02:00:07;8.13;;;5.10;;
16845;SDS011;8539;53.188;8.696;2023-06-05T02:02:44;11.85;;;5.97;;
16845;SDS011;8539;53.188;8.696;2023-06-05T02:05:12;12.93;;;5.97;;
16845;SDS011;8539;53.188;8.696;2023-06-05T02:07:40;8.57;;;6.75;;
16845;SDS011;8539;53.188;8.696;2023-06-05T02:10:07;10.63;;;6.20;;
16845;SDS011;8539;53.188;8.696;2023-06-05T02:12:34;8.27;;;5.68;;
16845;SDS011;8539;53.188;8.696;2023-06-05T02:15:02;8.30;;;6.00;;
16845;SDS011;8539;53.188;8.696;2023-06-05T02:17:29;8.75;;;6.30;;
16845;SDS011;8539;53.188;8.696;2023-06-05T02:19:55;9.30;;;6.57;;
16845;SDS011;8539;53.188;8.696;2023-06-05T02:22:21;8.95;;;5.45;;
16845;SDS011;8539;53.188;8.696;2023-06-05T02:24:50;8.35;;;6.20;;
16845;SDS011;8539;53.188;8.696;2023-06-05T02:27:17;10.68;;;5.90;;
16845;SDS011;8539;53.188;8.696;2023-06-05T02:29:43;7.10;;;5.00;;
16845;SDS011;8539;53.188;8.696;2023-06-05T02:32:11;11.10;;;6.95;;
16845;SDS011;8539;53.188;8.696;2023-06-05T02:34:38;11.23;;;7.75;;
16845;SDS011;8539;53.188;8.696;2023-06-05T02:37:04;9.20;;;6.18;;
16845;SDS011;8539;53.188;8.696;2023-06-05T02:39:30;9.43;;;6.82;;
16845;SDS011;8539;53.188;8.696;2023-06-05T02:41:58;8.77;;;6.47;;
16845;SDS011;8539;53.188;8.696;2023-06-05T02:44:24;12.95;;;6.53;;
16845;SDS011;8539;53.188;8.696;2023-06-05T02:46:51;10.07;;;6.35;;
16845;SDS011;8539;53.188;8.696;2023-06-05T02:49:18;10.93;;;6.15;;
16845;SDS011;8539;53.188;8.696;2023-06-05T02:51:44;11.25;;;7.13;;
16845;SDS011;8539;53.188;8.696;2023-06-05T02:54:10;9.15;;;6.90;;
16845;SDS011;8539;53.188;8.696;2023-06-05T02:56:36;11.88;;;7.28;;
16845;SDS011;8539;53.188;8.696;2023-06-05T02:59:02;10.93;;;7.13;;
16845;SDS011;8539;53.188;8.696;2023-06-05T03:01:28;13.60;;;6.88;;
16845;SDS011;8539;53.188;8.696;2023-06-05T03:04:02;11.73;;;6.95;;
16845;SDS011;8539;53.188;8.696;2023-06-05T03:06:29;11.80;;;7.30;;
16845;SDS011;8539;53.188;8.696;2023-06-05T03:08:59;13.23;;;7.05;;
16845;SDS011;8539;53.188;8.696;2023-06-05T03:11:25;11.63;;;6.35;;
16845;SDS011;8539;53.188;8.696;2023-06-05T03:13:52;11.27;;;7.00;;
16845;SDS011;8539;53.188;8.696;2023-06-05T03:16:18;10.73;;;6.88;;
16845;SDS011;8539;53.188;8.696;2023-06-05T03:18:44;10.90;;;7.25;;
16845;SDS011;8539;53.188;8.696;2023-06-05T03:21:14;10.38;;;6.88;;
16845;SDS011;8539;53.188;8.696;2023-06-05T03:23:40;11.52;;;7.47;;
16845;SDS011;8539;53.188;8.696;2023-06-05T03:26:06;11.55;;;7.28;;
16845;SDS011;8539;53.188;8.696;2023-06-05T03:28:32;9.32;;;7.50;;
16845;SDS011;8539;53.188;8.696;2023-06-05T03:30:59;13.77;;;8.25;;
16845;SDS011;8539;53.188;8.696;2023-06-05T03:33:26;10.13;;;6.97;;
16845;SDS011;8539;53.188;8.696;2023-06-05T03:35:52;10.70;;;7.00;;
16845;SDS011;8539;53.188;8.696;2023-06-05T03:38:18;10.90;;;7.10;;
16845;SDS011;8539;53.188;8.696;2023-06-05T03:40:44;14.70;;;7.97;;
16845;SDS011;8539;53.188;8.696;2023-06-05T03:43:10;12.80;;;7.15;;
16845;SDS011;8539;53.188;8.696;2023-06-05T03:45:37;9.98;;;7.57;;
16845;SDS011;8539;53.188;8.696;2023-06-05T03:48:06;11.23;;;7.32;;
16845;SDS011;8539;53.188;8.696;2023-06-05T03:50:32;13.80;;;8.05;;
16845;SDS011;8539;53.188;8.696;2023-06-05T03:53:04;12.63;;;7.78;;
16845;SDS011;8539;53.188;8.696;2023-06-05T03:55:33;15.57;;;8.05;;
16845;SDS011;8539;53.188;8.696;2023-06-05T03:58:07;9.43;;;6.32;;
16845;SDS011;8539;53.188;8.696;2023-06-05T04:00:34;15.85;;;8.45;;
16845;SDS011;8539;53.188;8.696;2023-06-05T04:03:00;11.45;;;7.47;;
16845;SDS011;8539;53.188;8.696;2023-06-05T04:05:27;10.00;;;7.07;;
16845;SDS011;8539;53.188;8.696;2023-06-05T04:07:53;11.77;;;7.28;;
16845;SDS011;8539;53.188;8.696;2023-06-05T04:10:19;12.25;;;7.43;;
16845;SDS011;8539;53.188;8.696;2023-06-05T04:12:46;12.25;;;7.25;;
16845;SDS011;8539;53.188;8.696;2023-06-05T04:15:12;12.07;;;7.75;;
16845;SDS011;8539;53.188;8.696;2023-06-05T04:17:39;12.60;;;7.28;;
16845;SDS011;8539;53.188;8.696;2023-06-05T04:20:05;12.18;;;7.38;;
16845;SDS011;8539;53.188;8.696;2023-06-05T04:22:35;11.10;;;7.65;;
16845;SDS011;8539;53.188;8.696;2023-06-05T04:25:01;11.30;;;7.03;;
16845;SDS011;8539;53.188;8.696;2023-06-05T04:27:27;11.77;;;7.10;;
16845;SDS011;8539;53.188;8.696;2023-06-05T04:29:54;12.75;;;8.02;;
16845;SDS011;8539;53.188;8.696;2023-06-05T04:32:20;14.50;;;9.10;;
16845;SDS011;8539;53.188;8.696;2023-06-05T04:34:46;12.38;;;7.90;;
16845;SDS011;8539;53.188;8.696;2023-06-05T04:37:12;11.88;;;7.43;;
16845;SDS011;8539;53.188;8.696;2023-06-05T04:39:38;16.27;;;8.68;;
16845;SDS011;8539;53.188;8.696;2023-06-05T04:42:05;9.27;;;7.35;;
16845;SDS011;8539;53.188;8.696;2023-06-05T04:44:32;17.65;;;8.93;;
16845;SDS011;8539;53.188;8.696;2023-06-05T04:46:58;9.90;;;7.60;;
16845;SDS011;8539;53.188;8.696;2023-06-05T04:49:25;12.13;;;8.60;;
16845;SDS011;8539;53.188;8.696;2023-06-05T04:51:51;13.60;;;8.25;;
16845;SDS011;8539;53.188;8.696;2023-06-05T04:54:22;10.68;;;9.00;;
16845;SDS011;8539;53.188;8.696;2023-06-05T04:56:48;12.82;;;9.27;;
16845;SDS011;8539;53.188;8.696;2023-06-05T04:59:15;13.25;;;8.05;;
16845;SDS011;8539;53.188;8.696;2023-06-05T05:01:41;16.92;;;9.27;;
16845;SDS011;8539;53.188;8.696;2023-06-05T05:04:07;10.68;;;7.75;;
16845;SDS011;8539;53.188;8.696;2023-06-05T05:06:33;13.55;;;8.63;;
16845;SDS011;8539;53.188;8.696;2023-06-05T05:09:00;14.88;;;7.40;;
16845;SDS011;8539;53.188;8.696;2023-06-05T05:11:26;12.15;;;8.13;;
16845;SDS011;8539;53.188;8.696;2023-06-05T05:13:52;11.02;;;7.43;;
16845;SDS011;8539;53.188;8.696;2023-06-05T05:16:19;11.52;;;7.18;;
16845;SDS011;8539;53.188;8.696;2023-06-05T05:18:46;9.38;;;6.70;;
16845;SDS011;8539;53.188;8.696;2023-06-05T05:21:12;16.00;;;8.02;;
16845;SDS011;8539;53.188;8.696;2023-06-05T05:23:38;11.00;;;6.63;;
16845;SDS011;8539;53.188;8.696;2023-06-05T05:26:04;13.20;;;8.15;;
16845;SDS011;8539;53.188;8.696;2023-06-05T05:28:32;10.57;;;7.40;;
16845;SDS011;8539;53.188;8.696;2023-06-05T05:30:58;10.73;;;6.65;;
16845;SDS011;8539;53.188;8.696;2023-06-05T05:33:24;12.27;;;6.80;;
16845;SDS011;8539;53.188;8.696;2023-06-05T05:35:50;17.48;;;7.13;;
16845;SDS011;8539;53.188;8.696;2023-06-05T05:38:16;8.88;;;7.03;;
16845;SDS011;8539;53.188;8.696;2023-06-05T05:40:42;11.45;;;6.75;;
16845;SDS011;8539;53.188;8.696;2023-06-05T05:43:08;9.68;;;5.85;;
16845;SDS011;8539;53.188;8.696;2023-06-05T05:45:35;10.75;;;6.13;;
16845;SDS011;8539;53.188;8.696;2023-06-05T05:48:04;10.55;;;6.55;;
16845;SDS011;8539;53.188;8.696;2023-06-05T05:50:30;8.07;;;5.53;;
16845;SDS011;8539;53.188;8.696;2023-06-05T05:52:57;9.38;;;5.93;;
16845;SDS011;8539;53.188;8.696;2023-06-05T05:55:24;12.25;;;7.10;;
16845;SDS011;8539;53.188;8.696;2023-06-05T05:57:50;9.77;;;6.82;;
16845;SDS011;8539;53.188;8.696;2023-06-05T06:00:16;8.05;;;5.88;;
16845;SDS011;8539;53.188;8.696;2023-06-05T06:02:42;7.25;;;5.18;;
16845;SDS011;8539;53.188;8.696;2023-06-05T06:05:11;9.65;;;5.32;;
16845;SDS011;8539;53.188;8.696;2023-06-05T06:07:38;9.93;;;6.18;;
16845;SDS011;8539;53.188;8.696;2023-06-05T06:10:06;9.13;;;5.60;;
16845;SDS011;8539;53.188;8.696;2023-06-05T06:12:33;7.75;;;5.20;;
16845;SDS011;8539;53.188;8.696;2023-06-05T06:15:00;6.65;;;5.68;;
16845;SDS011;8539;53.188;8.696;2023-06-05T06:17:26;9.02;;;4.72;;
16845;SDS011;8539;53.188;8.696;2023-06-05T06:19:52;6.90;;;5.07;;
16845;SDS011;8539;53.188;8.696;2023-06-05T06:22:19;8.05;;;5.38;;
16845;SDS011;8539;53.188;8.696;2023-06-05T06:24:45;9.27;;;6.15;;
16845;SDS011;8539;53.188;8.696;2023-06-05T06:27:11;7.22;;;5.57;;
16845;SDS011;8539;53.188;8.696;2023-06-05T06:29:46;12.00;;;6.72;;
16845;SDS011;8539;53.188;8.696;2023-06-05T06:32:19;6.30;;;5.70;;
16845;SDS011;8539;53.188;8.696;2023-06-05T06:34:46;7.50;;;4.90;;
16845;SDS011;8539;53.188;8.696;2023-06-05T06:37:12;10.80;;;5.45;;
16845;SDS011;8539;53.188;8.696;2023-06-05T06:39:41;7.88;;;5.45;;
16845;SDS011;8539;53.188;8.696;2023-06-05T06:42:10;13.27;;;6.25;;
16845;SDS011;8539;53.188;8.696;2023-06-05T06:44:36;8.40;;;5.35;;
16845;SDS011;8539;53.188;8.696;2023-06-05T06:47:03;7.45;;;4.97;;
16845;SDS011;8539;53.188;8.696;2023-06-05T06:49:29;12.57;;;5.13;;
16845;SDS011;8539;53.188;8.696;2023-06-05T06:51:55;7.57;;;5.20;;
16845;SDS011;8539;53.188;8.696;2023-06-05T06:54:22;10.77;;;5.55;;
16845;SDS011;8539;53.188;8.696;2023-06-05T06:56:50;8.45;;;5.07;;
16845;SDS011;8539;53.188;8.696;2023-06-05T06:59:17;11.50;;;5.20;;
16845;SDS011;8539;53.188;8.696;2023-06-05T07:01:44;6.32;;;4.32;;
16845;SDS011;8539;53.188;8.696;2023-06-05T07:04:17;7.05;;;4.75;;
16845;SDS011;8539;53.188;8.696;2023-06-05T07:06:46;6.50;;;4.57;;
16845;SDS011;8539;53.188;8.696;2023-06-05T07:09:13;7.47;;;4.93;;
16845;SDS011;8539;53.188;8.696;2023-06-05T07:11:39;9.85;;;6.07;;
16845;SDS011;8539;53.188;8.696;2023-06-05T07:14:06;11.18;;;5.13;;
16845;SDS011;8539;53.188;8.696;2023-06-05T07:16:33;6.85;;;4.47;;
16845;SDS011;8539;53.188;8.696;2023-06-05T07:18:59;4.50;;;4.05;;
16845;SDS011;8539;53.188;8.696;2023-06-05T07:21:25;6.35;;;4.38;;
16845;SDS011;8539;53.188;8.696;2023-06-05T07:23:52;8.93;;;5.20;;
16845;SDS011;8539;53.188;8.696;2023-06-05T07:26:19;6.05;;;4.78;;
16845;SDS011;8539;53.188;8.696;2023-06-05T07:28:46;9.15;;;4.70;;
16845;SDS011;8539;53.188;8.696;2023-06-05T07:31:15;6.47;;;4.90;;
16845;SDS011;8539;53.188;8.696;2023-06-05T07:33:42;9.63;;;4.72;;
16845;SDS011;8539;53.188;8.696;2023-06-05T07:36:08;5.82;;;4.28;;
16845;SDS011;8539;53.188;8.696;2023-06-05T07:38:36;9.52;;;5.55;;
16845;SDS011;8539;53.188;8.696;2023-06-05T07:41:04;4.72;;;4.30;;
16845;SDS011;8539;53.188;8.696;2023-06-05T07:43:32;6.57;;;4.50;;
16845;SDS011;8539;53.188;8.696;2023-06-05T07:45:58;5.30;;;4.28;;
16845;SDS011;8539;53.188;8.696;2023-06-05T07:48:24;7.68;;;4.00;;
16845;SDS011;8539;53.188;8.696;2023-06-05T07:50:50;7.93;;;3.95;;
16845;SDS011;8539;53.188;8.696;2023-06-05T07:53:16;7.82;;;4.65;;
16845;SDS011;8539;53.188;8.696;2023-06-05T07:55:42;8.27;;;4.70;;
16845;SDS011;8539;53.188;8.696;2023-06-05T07:58:08;6.03;;;3.63;;
16845;SDS011;8539;53.188;8.696;2023-06-05T08:00:35;9.32;;;4.85;;
16845;SDS011;8539;53.188;8.696;2023-06-05T08:03:01;6.78;;;3.95;;
16845;SDS011;8539;53.188;8.696;2023-06-05T08:05:28;6.88;;;4.57;;
16845;SDS011;8539;53.188;8.696;2023-06-05T08:07:57;8.05;;;4.38;;
16845;SDS011;8539;53.188;8.696;2023-06-05T08:10:23;7.43;;;3.45;;
16845;SDS011;8539;53.188;8.696;2023-06-05T08:12:50;7.38;;;3.50;;
16845;SDS011;8539;53.188;8.696;2023-06-05T08:15:16;9.18;;;4.47;;
16845;SDS011;8539;53.188;8.696;2023-06-05T08:17:42;7.55;;;4.78;;
16845;SDS011;8539;53.188;8.696;2023-06-05T08:20:08;11.90;;;5.63;;
16845;SDS011;8539;53.188;8.696;2023-06-05T08:22:36;5.93;;;3.58;;
16845;SDS011;8539;53.188;8.696;2023-06-05T08:25:06;10.98;;;4.65;;
16845;SDS011;8539;53.188;8.696;2023-06-05T08:27:32;6.78;;;3.80;;
16845;SDS011;8539;53.188;8.696;2023-06-05T08:29:58;6.10;;;3.58;;
16845;SDS011;8539;53.188;8.696;2023-06-05T08:32:25;8.75;;;3.90;;
16845;SDS011;8539;53.188;8.696;2023-06-05T08:34:51;10.07;;;4.28;;
16845;SDS011;8539;53.188;8.696;2023-06-05T08:37:17;9.57;;;3.60;;
16845;SDS011;8539;53.188;8.696;2023-06-05T08:39:44;6.25;;;3.78;;
16845;SDS011;8539;53.188;8.696;2023-06-05T08:42:10;5.03;;;3.65;;
16845;SDS011;8539;53.188;8.696;2023-06-05T08:44:46;5.75;;;3.97;;
16845;SDS011;8539;53.188;8.696;2023-06-05T08:47:13;4.93;;;3.60;;
16845;SDS011;8539;53.188;8.696;2023-06-05T08:49:41;7.90;;;3.50;;
16845;SDS011;8539;53.188;8.696;2023-06-05T08:52:07;9.68;;;3.80;;
16845;SDS011;8539;53.188;8.696;2023-06-05T08:54:38;8.90;;;3.67;;
16845;SDS011;8539;53.188;8.696;2023-06-05T08:57:08;5.35;;;3.08;;
16845;SDS011;8539;53.188;8.696;2023-06-05T08:59:34;8.50;;;3.42;;
16845;SDS011;8539;53.188;8.696;2023-06-05T09:02:00;4.95;;;3.35;;
16845;SDS011;8539;53.188;8.696;2023-06-05T09:04:27;6.78;;;3.40;;
16845;SDS011;8539;53.188;8.696;2023-06-05T09:06:55;5.63;;;3.38;;
16845;SDS011;8539;53.188;8.696;2023-06-05T09:09:23;6.00;;;3.33;;
16845;SDS011;8539;53.188;8.696;2023-06-05T09:12:11;5.20;;;3.60;;
16845;SDS011;8539;53.188;8.696;2023-06-05T09:14:38;7.60;;;3.22;;
16845;SDS011;8539;53.188;8.696;2023-06-05T09:17:04;6.18;;;2.85;;
16845;SDS011;8539;53.188;8.696;2023-06-05T09:19:37;5.60;;;3.08;;
16845;SDS011;8539;53.188;8.696;2023-06-05T09:22:06;3.80;;;2.75;;
16845;SDS011;8539;53.188;8.696;2023-06-05T09:24:34;4.75;;;3.38;;
16845;SDS011;8539;53.188;8.696;2023-06-05T09:27:02;5.50;;;2.92;;
16845;SDS011;8539;53.188;8.696;2023-06-05T09:32:07;4.95;;;3.42;;
16845;SDS011;8539;53.188;8.696;2023-06-05T09:34:36;5.80;;;3.17;;
16845;SDS011;8539;53.188;8.696;2023-06-05T09:37:04;4.35;;;2.75;;
16845;SDS011;8539;53.188;8.696;2023-06-05T09:39:33;4.47;;;2.63;;
16845;SDS011;8539;53.188;8.696;2023-06-05T09:42:00;4.90;;;3.58;;
16845;SDS011;8539;53.188;8.696;2023-06-05T09:44:27;10.63;;;2.78;;
16845;SDS011;8539;53.188;8.696;2023-06-05T09:47:07;5.40;;;3.10;;
16845;SDS011;8539;53.188;8.696;2023-06-05T09:52:06;5.38;;;3.13;;
16845;SDS011;8539;53.188;8.696;2023-06-05T09:54:36;4.07;;;3.33;;
16845;SDS011;8539;53.188;8.696;2023-06-05T09:57:04;4.65;;;2.65;;
16845;SDS011;8539;53.188;8.696;2023-06-05T10:02:16;4.60;;;2.75;;
16845;SDS011;8539;53.188;8.696;2023-06-05T10:04:45;8.73;;;3.35;;
16845;SDS011;8539;53.188;8.696;2023-06-05T10:07:14;6.18;;;3.05;;
16845;SDS011;8539;53.188;8.696;2023-06-05T10:09:40;4.55;;;2.80;;
16845;SDS011;8539;53.188;8.696;2023-06-05T10:12:08;6.32;;;2.70;;
16845;SDS011;8539;53.188;8.696;2023-06-05T10:14:35;8.60;;;3.08;;
16845;SDS011;8539;53.188;8.696;2023-06-05T10:17:02;4.82;;;2.25;;
16845;SDS011;8539;53.188;8.696;2023-06-05T10:19:29;5.00;;;2.45;;
16845;SDS011;8539;53.188;8.696;2023-06-05T10:21:55;5.43;;;2.83;;
16845;SDS011;8539;53.188;8.696;2023-06-05T10:24:25;6.55;;;2.95;;
16845;SDS011;8539;53.188;8.696;2023-06-05T10:35:23;4.20;;;2.40;;
16845;SDS011;8539;53.188;8.696;2023-06-05T10:40:45;4.65;;;2.58;;
16845;SDS011;8539;53.188;8.696;2023-06-05T10:45:50;3.20;;;2.70;;
16845;SDS011;8539;53.188;8.696;2023-06-05T10:48:17;4.03;;;2.60;;
16845;SDS011;8539;53.188;8.696;2023-06-05T10:50:43;5.28;;;2.55;;
16845;SDS011;8539;53.188;8.696;2023-06-05T10:56:07;6.57;;;2.78;;
16845;SDS011;8539;53.188;8.696;2023-06-05T10:58:33;5.40;;;2.83;;
16845;SDS011;8539;53.188;8.696;2023-06-05T11:03:56;4.97;;;2.80;;
16845;SDS011;8539;53.188;8.696;2023-06-05T11:06:23;4.80;;;3.35;;
16845;SDS011;8539;53.188;8.696;2023-06-05T11:09:08;5.25;;;3.35;;
16845;SDS011;8539;53.188;8.696;2023-06-05T11:17:26;4.20;;;2.50;;
16845;SDS011;8539;53.188;8.696;2023-06-05T11:19:52;10.00;;;3.00;;
16845;SDS011;8539;53.188;8.696;2023-06-05T11:22:19;3.60;;;2.30;;
16845;SDS011;8539;53.188;8.696;2023-06-05T11:24:45;7.47;;;2.97;;
16845;SDS011;8539;53.188;8.696;2023-06-05T11:30:10;5.25;;;2.65;;
16845;SDS011;8539;53.188;8.696;2023-06-05T11:32:42;5.07;;;2.67;;
16845;SDS011;8539;53.188;8.696;2023-06-05T11:35:09;4.40;;;2.58;;
16845;SDS011;8539;53.188;8.696;2023-06-05T11:37:36;4.20;;;2.38;;
16845;SDS011;8539;53.188;8.696;2023-06-05T11:40:03;4.43;;;2.90;;
16845;SDS011;8539;53.188;8.696;2023-06-05T11:42:37;4.68;;;2.40;;
16845;SDS011;8539;53.188;8.696;2023-06-05T11:45:11;5.30;;;2.38;;
16845;SDS011;8539;53.188;8.696;2023-06-05T11:47:38;11.13;;;2.78;;
16845;SDS011;8539;53.188;8.696;2023-06-05T11:52:35;4.70;;;2.58;;
16845;SDS011;8539;53.188;8.696;2023-06-05T11:55:17;4.82;;;2.50;;
16845;SDS011;8539;53.188;8.696;2023-06-05T11:57:47;2.45;;;2.17;;
16845;SDS011;8539;53.188;8.696;2023-06-05T12:00:21;6.15;;;2.22;;
16845;SDS011;8539;53.188;8.696;2023-06-05T12:02:48;5.43;;;2.30;;
16845;SDS011;8539;53.188;8.696;2023-06-05T12:05:15;3.75;;;2.15;;
16845;SDS011;8539;53.188;8.696;2023-06-05T12:07:41;4.85;;;2.92;;
16845;SDS011;8539;53.188;8.696;2023-06-05T12:10:08;3.92;;;2.90;;
16845;SDS011;8539;53.188;8.696;2023-06-05T12:12:35;4.40;;;2.35;;
16845;SDS011;8539;53.188;8.696;2023-06-05T12:15:17;4.35;;;2.50;;
16845;SDS011;8539;53.188;8.696;2023-06-05T12:17:51;3.10;;;2.55;;
16845;SDS011;8539;53.188;8.696;2023-06-05T12:20:19;6.13;;;3.22;;
16845;SDS011;8539;53.188;8.696;2023-06-05T12:22:46;7.55;;;2.40;;
16845;SDS011;8539;53.188;8.696;2023-06-05T12:27:48;9.52;;;2.88;;
16845;SDS011;8539;53.188;8.696;2023-06-05T12:30:15;2.88;;;2.35;;
16845;SDS011;8539;53.188;8.696;2023-06-05T12:32:44;3.20;;;2.33;;
16845;SDS011;8539;53.188;8.696;2023-06-05T12:37:47;6.13;;;2.83;;
16845;SDS011;8539;53.188;8.696;2023-06-05T12:40:19;7.13;;;3.08;;
16845;SDS011;8539;53.188;8.696;2023-06-05T12:42:48;6.07;;;3.35;;
16845;SDS011;8539;53.188;8.696;2023-06-05T12:45:14;6.30;;;3.28;;
16845;SDS011;8539;53.188;8.696;2023-06-05T12:47:41;3.92;;;2.40;;
16845;SDS011;8539;53.188;8.696;2023-06-05T12:50:09;5.10;;;3.33;;
16845;SDS011;8539;53.188;8.696;2023-06-05T12:52:39;5.60;;;3.33;;
16845;SDS011;8539;53.188;8.696;2023-06-05T12:55:07;6.15;;;3.67;;
16845;SDS011;8539;53.188;8.696;2023-06-05T12:57:33;4.70;;;2.80;;
16845;SDS011;8539;53.188;8.696;2023-06-05T13:00:02;5.35;;;3.15;;
16845;SDS011;8539;53.188;8.696;2023-06-05T13:02:42;5.55;;;3.15;;
16845;SDS011;8539;53.188;8.696;2023-06-05T13:05:10;5.30;;;3.60;;
16845;SDS011;8539;53.188;8.696;2023-06-05T13:07:37;7.72;;;3.47;;
16845;SDS011;8539;53.188;8.696;2023-06-05T13:10:05;5.90;;;3.20;;
16845;SDS011;8539;53.188;8.696;2023-06-05T13:12:32;10.27;;;3.53;;
16845;SDS011;8539;53.188;8.696;2023-06-05T13:14:58;5.47;;;3.55;;
16845;SDS011;8539;53.188;8.696;2023-06-05T13:17:25;4.60;;;2.95;;
16845;SDS011;8539;53.188;8.696;2023-06-05T13:19:52;4.15;;;2.97;;
16845;SDS011;8539;53.188;8.696;2023-06-05T13:22:18;4.28;;;2.53;;
16845;SDS011;8539;53.188;8.696;2023-06-05T13:24:45;5.38;;;3.17;;
16845;SDS011;8539;53.188;8.696;2023-06-05T13:27:11;4.03;;;2.63;;
16845;SDS011;8539;53.188;8.696;2023-06-05T13:29:40;5.95;;;3.13;;
16845;SDS011;8539;53.188;8.696;2023-06-05T13:32:07;4.45;;;2.70;;
16845;SDS011;8539;53.188;8.696;2023-06-05T13:34:33;5.50;;;3.38;;
16845;SDS011;8539;53.188;8.696;2023-06-05T13:36:59;5.05;;;3.42;;
16845;SDS011;8539;53.188;8.696;2023-06-05T13:39:25;4.93;;;3.25;;
16845;SDS011;8539;53.188;8.696;2023-06-05T13:41:51;7.93;;;3.22;;
16845;SDS011;8539;53.188;8.696;2023-06-05T13:44:17;3.55;;;2.67;;
16845;SDS011;8539;53.188;8.696;2023-06-05T13:46:43;6.32;;;2.80;;
16845;SDS011;8539;53.188;8.696;2023-06-05T13:49:10;4.55;;;2.95;;
16845;SDS011;8539;53.188;8.696;2023-06-05T13:51:36;2.88;;;2.60;;
16845;SDS011;8539;53.188;8.696;2023-06-05T13:54:04;5.50;;;2.85;;
16845;SDS011;8539;53.188;8.696;2023-06-05T13:56:30;8.70;;;3.30;;
16845;SDS011;8539;53.188;8.696;2023-06-05T13:58:56;4.85;;;2.90;;
16845;SDS011;8539;53.188;8.696;2023-06-05T14:01:23;3.72;;;3.05;;
16845;SDS011;8539;53.188;8.696;2023-06-05T14:03:50;4.38;;;3.28;;
16845;SDS011;8539;53.188;8.696;2023-06-05T14:06:16;5.45;;;3.47;;
16845;SDS011;8539;53.188;8.696;2023-06-05T14:08:43;4.53;;;3.33;;
16845;SDS011;8539;53.188;8.696;2023-06-05T14:11:10;5.20;;;3.10;;
16845;SDS011;8539;53.188;8.696;2023-06-05T14:13:37;6.55;;;3.00;;
16845;SDS011;8539;53.188;8.696;2023-06-05T14:16:03;4.70;;;3.08;;
16845;SDS011;8539;53.188;8.696;2023-06-05T14:18:30;5.82;;;3.03;;
16845;SDS011;8539;53.188;8.696;2023-06-05T14:20:56;5.05;;;3.05;;
16845;SDS011;8539;53.188;8.696;2023-06-05T14:23:23;4.72;;;3.58;;
16845;SDS011;8539;53.188;8.696;2023-06-05T14:25:50;4.78;;;2.92;;
16845;SDS011;8539;53.188;8.696;2023-06-05T14:28:16;7.70;;;2.97;;
16845;SDS011;8539;53.188;8.696;2023-06-05T14:30:43;5.75;;;2.95;;
16845;SDS011;8539;53.188;8.696;2023-06-05T14:33:10;6.40;;;2.80;;
16845;SDS011;8539;53.188;8.696;2023-06-05T14:35:37;5.05;;;3.30;;
16845;SDS011;8539;53.188;8.696;2023-06-05T14:38:03;5.50;;;2.80;;
16845;SDS011;8539;53.188;8.696;2023-06-05T14:40:29;7.75;;;3.28;;
16845;SDS011;8539;53.188;8.696;2023-06-05T14:42:58;7.32;;;2.97;;
16845;SDS011;8539;53.188;8.696;2023-06-05T14:45:24;4.68;;;2.50;;
16845;SDS011;8539;53.188;8.696;2023-06-05T14:47:50;3.67;;;2.55;;
16845;SDS011;8539;53.188;8.696;2023-06-05T14:50:17;4.75;;;2.90;;
16845;SDS011;8539;53.188;8.696;2023-06-05T14:52:43;6.03;;;3.30;;
16845;SDS011;8539;53.188;8.696;2023-06-05T14:55:10;6.13;;;2.90;;
16845;SDS011;8539;53.188;8.696;2023-06-05T14:57:36;6.50;;;2.38;;
16845;SDS011;8539;53.188;8.696;2023-06-05T15:00:03;2.88;;;2.50;;
16845;SDS011;8539;53.188;8.696;2023-06-05T15:02:30;3.30;;;3.00;;
16845;SDS011;8539;53.188;8.696;2023-06-05T15:04:56;8.02;;;2.85;;
16845;SDS011;8539;53.188;8.696;2023-06-05T15:07:24;5.65;;;2.58;;
16845;SDS011;8539;53.188;8.696;2023-06-05T15:09:50;5.68;;;2.60;;
16845;SDS011;8539;53.188;8.696;2023-06-05T15:12:17;4.53;;;2.67;;
16845;SDS011;8539;53.188;8.696;2023-06-05T15:14:43;10.68;;;2.85;;
16845;SDS011;8539;53.188;8.696;2023-06-05T15:17:09;6.28;;;3.30;;
16845;SDS011;8539;53.188;8.696;2023-06-05T15:19:35;3.63;;;2.40;;
16845;SDS011;8539;53.188;8.696;2023-06-05T15:22:02;7.28;;;3.30;;
16845;SDS011;8539;53.188;8.696;2023-06-05T15:24:28;2.80;;;2.50;;
16845;SDS011;8539;53.188;8.696;2023-06-05T15:26:54;5.32;;;3.20;;
16845;SDS011;8539;53.188;8.696;2023-06-05T15:29:20;6.97;;;3.20;;
16845;SDS011;8539;53.188;8.696;2023-06-05T15:31:46;8.82;;;3.05;;
16845;SDS011;8539;53.188;8.696;2023-06-05T15:34:12;5.53;;;2.80;;
16845;SDS011;8539;53.188;8.696;2023-06-05T15:36:38;6.72;;;3.28;;
16845;SDS011;8539;53.188;8.696;2023-06-05T15:39:04;5.43;;;2.67;;
16845;SDS011;8539;53.188;8.696;2023-06-05T15:41:31;3.05;;;2.47;;
16845;SDS011;8539;53.188;8.696;2023-06-05T15:43:57;6.30;;;2.50;;
16845;SDS011;8539;53.188;8.696;2023-06-05T15:46:23;6.00;;;2.85;;
16845;SDS011;8539;53.188;8.696;2023-06-05T15:48:49;5.97;;;2.90;;